Time;durP1;ratioP1;P1;durP2;ratioP2;P2;SDS_P1;SDS_P2;PMS_P1;PMS_P2;Temp;Humidity;BMP_temperature;BMP_pressure;BME280_temperature;BME280_humidity;BME280_pressure;Samples;Min_cycle;Max_cycle;Signal;HPM_P1;HPM_P2
2021/10/25 00:01:00;;;;;;;3.47;1.10;;;;;;;3.36;59.72;101166.41;1719024;82;21101;-56
2021/10/25 00:03:27;;;;;;;2.87;1.23;;;;;;;3.34;59.80;101162.84;1714370;82;21084;-57
2021/10/25 00:05:55;;;;;;;8.03;3.87;;;;;;;3.31;59.86;101165.52;1715739;82;21034;-56
2021/10/25 00:08:21;;;;;;;7.17;1.60;;;;;;;3.25;59.96;101165.02;1728513;81;21088;-57
2021/10/25 00:10:47;;;;;;;4.53;1.37;;;;;;;3.20;60.08;101165.46;1724857;82;21128;-56
2021/10/25 00:13:14;;;;;;;3.47;1.30;;;;;;;3.16;60.17;101168.08;1727806;81;22255;-56
2021/10/25 00:15:42;;;;;;;2.20;1.40;;;;;;;3.13;60.31;101175.64;1725666;81;21407;-56
2021/10/25 00:18:08;;;;;;;2.67;0.90;;;;;;;3.09;60.45;101174.27;1710282;81;21431;-56
2021/10/25 00:20:34;;;;;;;1.73;0.80;;;;;;;3.05;60.58;101174.71;1716958;82;21062;-57
2021/10/25 00:23:03;;;;;;;1.50;0.80;;;;;;;3.00;60.65;101169.36;1717801;82;22417;-57
2021/10/25 00:25:32;;;;;;;2.20;1.00;;;;;;;2.95;60.75;101171.55;1689034;83;21116;-56
2021/10/25 00:27:58;;;;;;;2.77;0.87;;;;;;;2.88;60.93;101171.97;1715031;82;21746;-55
2021/10/25 00:30:25;;;;;;;3.60;0.90;;;;;;;2.86;61.01;101168.84;1710632;81;21363;-56
2021/10/25 00:32:51;;;;;;;2.53;0.80;;;;;;;2.81;61.15;101170.13;1716047;83;21358;-56
2021/10/25 00:35:18;;;;;;;2.70;0.77;;;;;;;2.77;61.25;101168.35;1711845;81;21053;-57
2021/10/25 00:37:45;;;;;;;4.13;0.97;;;;;;;2.73;61.34;101163.88;1718324;82;21069;-57
2021/10/25 00:40:13;;;;;;;2.50;0.70;;;;;;;2.70;61.50;101166.54;1718115;82;22562;-57
2021/10/25 00:42:40;;;;;;;8.17;0.90;;;;;;;2.66;61.59;101167.39;1717008;82;21068;-56
2021/10/25 00:45:07;;;;;;;1.20;0.70;;;;;;;2.63;61.66;101170.05;1711068;82;22585;-57
2021/10/25 00:47:34;;;;;;;1.97;0.60;;;;;;;2.60;61.75;101171.34;1715252;82;21100;-55
2021/10/25 00:50:00;;;;;;;2.30;0.70;;;;;;;2.55;61.82;101172.63;1712934;81;21057;-57
2021/10/25 00:52:27;;;;;;;1.40;0.67;;;;;;;2.51;61.91;101179.25;1694120;83;21148;-56
2021/10/25 00:54:53;;;;;;;2.23;0.77;;;;;;;2.47;62.04;101178.77;1761070;80;21049;-57
2021/10/25 00:57:20;;;;;;;1.93;0.70;;;;;;;2.42;62.15;101172.54;1758181;79;21037;-56
2021/10/25 00:59:47;;;;;;;3.03;0.70;;;;;;;2.39;62.29;101174.73;1769557;80;21053;-56
2021/10/25 01:02:13;;;;;;;4.23;0.77;;;;;;;2.38;62.36;101173.41;1758232;79;21054;-57
2021/10/25 01:04:40;;;;;;;1.60;0.77;;;;;;;2.35;62.39;101176.93;1758280;79;23166;-57
2021/10/25 01:07:06;;;;;;;2.90;0.80;;;;;;;2.31;62.42;101171.56;1746254;80;21042;-57
2021/10/25 01:09:34;;;;;;;1.73;0.70;;;;;;;2.25;62.53;101172.41;1769267;79;21065;-57
2021/10/25 01:12:01;;;;;;;1.13;0.63;;;;;;;2.19;62.62;101177.25;1721972;81;21124;-57
2021/10/25 01:14:28;;;;;;;1.77;0.80;;;;;;;2.13;62.63;101175.84;1748569;80;21576;-58
2021/10/25 01:16:54;;;;;;;1.67;0.60;;;;;;;2.04;62.74;101181.08;1725953;80;21655;-58
2021/10/25 01:19:20;;;;;;;2.03;0.80;;;;;;;2.00;62.85;101182.37;1767973;80;21518;-59
2021/10/25 01:21:47;;;;;;;2.10;0.93;;;;;;;1.93;63.02;101184.53;1734577;81;21639;-58
2021/10/25 01:24:13;;;;;;;2.27;0.90;;;;;;;1.88;63.07;101189.78;1745394;81;21139;-58
2021/10/25 01:26:40;;;;;;;4.37;0.90;;;;;;;1.82;63.20;101189.73;1747624;80;21045;-58
2021/10/25 01:29:06;;;;;;;2.47;1.00;;;;;;;1.78;63.40;101190.16;1745051;80;21155;-58
2021/10/25 01:31:32;;;;;;;1.97;0.90;;;;;;;1.73;63.40;101194.51;1746354;80;21054;-58
2021/10/25 01:33:59;;;;;;;4.93;1.70;;;;;;;1.67;63.48;101200.20;1747166;81;20953;-58
2021/10/25 01:36:27;;;;;;;2.67;1.33;;;;;;;1.61;63.73;101199.70;1746997;81;20962;-57
2021/10/25 01:38:53;;;;;;;4.13;1.87;;;;;;;1.57;63.88;101205.84;1745523;81;21093;-58
2021/10/25 01:41:20;;;;;;;7.47;1.60;;;;;;;1.53;63.91;101211.53;1745476;81;21146;-58
2021/10/25 01:43:47;;;;;;;4.73;1.40;;;;;;;1.48;64.03;101213.69;1743701;81;21116;-58
2021/10/25 01:46:13;;;;;;;3.87;1.97;;;;;;;1.43;64.15;101211.44;1715104;81;21046;-58
2021/10/25 01:48:39;;;;;;;4.83;2.00;;;;;;;1.40;64.41;101220.23;1747698;81;21387;-57
2021/10/25 01:51:06;;;;;;;4.53;1.90;;;;;;;1.39;64.55;101222.86;1717014;81;21135;-58
2021/10/25 01:53:35;;;;;;;6.33;1.93;;;;;;;1.37;64.71;101221.95;1741966;80;22677;-57
2021/10/25 01:56:02;;;;;;;3.53;1.80;;;;;;;1.35;64.67;101227.70;1756932;80;21092;-58
2021/10/25 01:58:30;;;;;;;6.33;2.77;;;;;;;1.34;64.94;101225.91;1736683;80;21018;-57
2021/10/25 02:00:58;;;;;;;4.00;2.20;;;;;;;1.33;64.99;101223.69;1756904;80;21108;-57
2021/10/25 02:03:25;;;;;;;4.90;2.60;;;;;;;1.33;65.06;101228.11;1732027;80;21065;-57
2021/10/25 02:05:54;;;;;;;3.83;2.33;;;;;;;1.32;65.14;101232.52;1729930;81;21512;-57
2021/10/25 02:08:23;;;;;;;5.50;2.90;;;;;;;1.30;65.15;101239.56;1727629;80;21157;-57
2021/10/25 02:10:54;;;;;;;7.80;2.90;;;;;;;1.30;65.15;101236.02;1748480;80;21792;-57
2021/10/25 02:13:21;;;;;;;4.10;2.43;;;;;;;1.28;65.18;101235.09;1736387;80;21117;-57
2021/10/25 02:15:47;;;;;;;5.20;2.63;;;;;;;1.25;65.23;101237.73;1740483;80;20926;-57
2021/10/25 02:18:16;;;;;;;6.53;2.20;;;;;;;1.22;65.13;101237.25;1728509;81;21783;-57
2021/10/25 02:20:42;;;;;;;5.67;3.00;;;;;;;1.16;65.27;101239.83;1757947;80;20929;-57
2021/10/25 02:23:12;;;;;;;5.77;2.27;;;;;;;1.14;65.34;101242.45;1734747;80;20939;-57
2021/10/25 02:25:40;;;;;;;7.07;3.60;;;;;;;1.11;65.35;101249.46;1738111;80;20991;-57
2021/10/25 02:28:08;;;;;;;11.63;6.83;;;;;;;1.07;65.44;101250.30;1736923;81;21447;-57
2021/10/25 02:30:34;;;;;;;13.20;7.23;;;;;;;1.02;65.43;101257.31;1732850;80;21792;-57
2021/10/25 02:33:02;;;;;;;15.13;7.93;;;;;;;0.98;65.53;101259.02;1737926;80;20915;-57
2021/10/25 02:35:30;;;;;;;13.37;7.50;;;;;;;0.93;65.65;101252.77;1744534;80;21042;-57
2021/10/25 02:37:57;;;;;;;14.83;7.40;;;;;;;0.90;65.70;101251.83;1717789;80;20922;-57
2021/10/25 02:40:25;;;;;;;8.77;4.27;;;;;;;0.86;65.67;101253.52;1744000;80;21014;-57
2021/10/25 02:42:52;;;;;;;8.90;4.37;;;;;;;0.82;65.78;101260.99;1721502;80;21389;-57
2021/10/25 02:45:19;;;;;;;6.97;3.50;;;;;;;0.80;65.85;101255.20;1747133;80;21909;-57
2021/10/25 02:47:46;;;;;;;9.53;4.03;;;;;;;0.74;65.88;101259.55;1715477;80;20934;-57
2021/10/25 02:50:13;;;;;;;7.43;3.23;;;;;;;0.71;65.92;101265.23;1744392;80;20990;-57
2021/10/25 02:52:40;;;;;;;5.67;2.53;;;;;;;0.67;66.02;101266.96;1746067;80;20998;-57
2021/10/25 02:55:07;;;;;;;7.10;3.83;;;;;;;0.65;66.09;101263.39;1760190;79;21185;-57
2021/10/25 02:57:36;;;;;;;10.30;3.23;;;;;;;0.63;66.21;101262.89;1770498;79;21390;-57
2021/10/25 03:00:07;;;;;;;12.77;3.90;;;;;;;0.60;66.22;101261.08;1715476;81;21103;-57
2021/10/25 03:02:33;;;;;;;7.63;3.77;;;;;;;0.57;66.39;101263.70;1740708;81;21015;-57
2021/10/25 03:05:00;;;;;;;5.23;2.83;;;;;;;0.56;66.54;101268.97;1746738;81;21012;-57
2021/10/25 03:07:27;;;;;;;7.37;3.00;;;;;;;0.50;66.52;101272.42;1739807;81;21146;-57
2021/10/25 03:09:57;;;;;;;5.90;3.40;;;;;;;0.46;66.75;101275.87;1768713;80;20990;-57
2021/10/25 03:12:24;;;;;;;8.13;3.07;;;;;;;0.44;67.01;101285.97;1741796;80;21543;-58
2021/10/25 03:14:53;;;;;;;5.07;2.80;;;;;;;0.43;67.14;101285.50;1743121;81;21085;-57
2021/10/25 03:17:20;;;;;;;6.57;3.47;;;;;;;0.43;67.27;101277.56;1745928;81;21117;-57
2021/10/25 03:19:53;;;;;;;5.53;3.20;;;;;;;0.43;67.27;101285.08;1743508;81;21325;-57
2021/10/25 03:22:19;;;;;;;6.00;3.00;;;;;;;0.42;67.15;101276.70;1741188;81;21602;-57
2021/10/25 03:24:45;;;;;;;9.90;3.93;;;;;;;0.41;67.28;101276.67;1716161;81;21594;-57
2021/10/25 03:27:13;;;;;;;6.67;3.03;;;;;;;0.42;67.40;101286.41;1744044;81;21514;-57
2021/10/25 03:29:40;;;;;;;5.67;2.90;;;;;;;0.43;67.52;101285.50;1740957;81;21077;-57
2021/10/25 03:32:06;;;;;;;8.50;4.40;;;;;;;0.43;67.57;101288.16;1747876;81;21364;-57
2021/10/25 03:34:33;;;;;;;9.00;3.67;;;;;;;0.43;67.60;101293.02;1739881;80;21473;-57
2021/10/25 03:37:00;;;;;;;5.03;3.23;;;;;;;0.44;67.49;101290.84;1736728;80;21037;-57
2021/10/25 03:39:30;;;;;;;5.20;3.23;;;;;;;0.45;67.43;101282.45;1745383;80;21278;-57
2021/10/25 03:41:57;;;;;;;6.87;4.73;;;;;;;0.43;67.38;101280.20;1735524;81;21086;-57
2021/10/25 03:49:34;;;;;;;4.40;2.70;;;;;;;0.31;67.36;101281.80;1740865;81;21129;-57
2021/10/25 03:51:58;;;;;;;5.37;2.57;;;;;;;0.30;67.46;101285.31;1744880;81;21661;-57
2021/10/25 03:54:43;;;;;;;7.20;3.23;;;;;;;0.28;67.51;101283.49;1748387;80;21574;-57
2021/10/25 04:02:24;;;;;;;6.17;3.10;;;;;;;0.20;67.62;101289.98;1761287;80;21126;-56
2021/10/25 04:28:58;;;;;;;10.13;5.27;;;;;;;0.03;67.94;101299.80;1750063;80;21087;-57
2021/10/25 04:31:24;;;;;;;7.70;5.13;;;;;;;0.04;68.03;101305.56;1748060;80;21037;-57
2021/10/25 04:33:52;;;;;;;9.03;5.30;;;;;;;0.05;67.85;101308.67;1746242;80;21173;-57
2021/10/25 04:36:31;;;;;;;8.93;4.90;;;;;;;0.01;67.87;101315.65;1692106;83;21789;-57
2021/10/25 04:38:59;;;;;;;8.40;4.60;;;;;;;-0.01;68.00;101316.08;1769252;79;21084;-57
2021/10/25 04:41:25;;;;;;;9.63;4.00;;;;;;;-0.01;68.13;101309.03;1773144;79;21381;-57
2021/10/25 04:43:52;;;;;;;10.60;5.03;;;;;;;-0.01;68.15;101315.65;1748149;80;21794;-57
2021/10/25 04:46:18;;;;;;;7.03;4.57;;;;;;;0.02;68.07;101315.22;1741523;81;22349;-57
2021/10/25 04:48:45;;;;;;;9.20;3.83;;;;;;;0.01;67.96;101307.70;1743082;81;21092;-57
2021/10/25 04:51:17;;;;;;;6.07;3.53;;;;;;;0.00;68.01;101316.55;1741869;81;22177;-57
2021/10/25 04:53:57;;;;;;;9.70;3.80;;;;;;;0.00;68.07;101324.02;1749713;80;20937;-57
2021/10/25 04:56:26;;;;;;;7.10;3.63;;;;;;;-0.03;67.98;101321.34;1720864;81;21061;-57
2021/10/25 04:58:52;;;;;;;7.67;4.10;;;;;;;-0.04;68.05;101330.14;1742786;80;21077;-57
2021/10/25 05:01:19;;;;;;;9.13;3.70;;;;;;;-0.04;68.13;101327.92;1737852;80;21628;-57
2021/10/25 05:03:45;;;;;;;7.90;3.47;;;;;;;-0.03;68.11;101346.48;1705158;81;21583;-57
2021/10/25 05:06:19;;;;;;;10.90;4.60;;;;;;;-0.01;68.15;101341.23;1710030;82;21056;-57
2021/10/25 05:08:47;;;;;;;7.67;3.07;;;;;;;-0.01;68.08;101343.88;1718648;82;21617;-57
2021/10/25 05:11:14;;;;;;;6.60;3.33;;;;;;;0.00;68.16;101349.17;1716206;82;21283;-57
2021/10/25 05:13:42;;;;;;;6.37;3.57;;;;;;;0.06;68.18;101356.36;1715714;82;21599;-57
2021/10/25 05:16:10;;;;;;;5.73;3.77;;;;;;;0.10;68.15;101353.33;1718768;82;21109;-57
2021/10/25 05:18:38;;;;;;;4.67;3.53;;;;;;;0.18;68.17;101360.98;1714206;82;22445;-57
2021/10/25 05:21:04;;;;;;;7.13;4.70;;;;;;;0.27;68.15;101362.48;1717323;82;21627;-57
2021/10/25 05:23:31;;;;;;;9.60;4.37;;;;;;;0.35;68.11;101359.55;1718110;82;21868;-57
2021/10/25 05:25:57;;;;;;;6.07;4.00;;;;;;;0.42;68.02;101358.83;1717372;82;21397;-57
2021/10/25 05:28:24;;;;;;;8.47;4.33;;;;;;;0.50;67.93;101365.58;1715908;82;21674;-56
2021/10/25 05:30:50;;;;;;;7.80;4.77;;;;;;;0.52;67.80;101367.38;1714633;81;20922;-57
2021/10/25 05:33:21;;;;;;;5.90;3.60;;;;;;;0.52;67.82;101363.83;1723873;81;20985;-57
2021/10/25 05:35:48;;;;;;;8.33;4.57;;;;;;;0.52;67.91;101362.50;1723747;81;20918;-57
2021/10/25 05:38:15;;;;;;;4.63;3.20;;;;;;;0.54;67.96;101363.00;1724087;81;20926;-57
2021/10/25 05:40:41;;;;;;;5.33;3.40;;;;;;;0.57;68.00;101367.47;1726316;81;20982;-57
2021/10/25 05:43:08;;;;;;;7.40;3.30;;;;;;;0.58;67.98;101374.12;1724316;81;20950;-57
2021/10/25 05:45:34;;;;;;;6.33;3.90;;;;;;;0.59;68.03;101377.67;1724068;82;20961;-57
2021/10/25 05:48:01;;;;;;;4.77;3.97;;;;;;;0.61;68.19;101374.59;1726046;82;20942;-57
2021/10/25 05:50:28;;;;;;;4.93;4.07;;;;;;;0.63;68.25;101379.06;1724603;81;21100;-57
2021/10/25 05:52:55;;;;;;;6.53;3.50;;;;;;;0.64;68.35;101379.52;1695077;81;21477;-58
2021/10/25 05:55:23;;;;;;;5.80;4.20;;;;;;;0.69;68.40;101389.77;1731521;80;21926;-57
2021/10/25 05:57:52;;;;;;;8.93;3.93;;;;;;;0.73;68.58;101390.72;1756922;80;20922;-58
2021/10/25 06:00:33;;;;;;;7.77;4.13;;;;;;;0.81;68.73;101392.17;1757594;80;21434;-58
2021/10/25 06:02:55;;;;;;;9.73;4.57;;;;;;;0.88;68.79;101390.08;1750300;80;22201;-58
2021/10/25 06:05:25;;;;;;;8.33;4.57;;;;;;;0.96;68.83;101389.78;1756668;80;21025;-58
2021/10/25 06:07:52;;;;;;;8.97;5.03;;;;;;;1.04;68.79;101396.98;1753686;80;20973;-58
2021/10/25 06:10:25;;;;;;;14.47;5.43;;;;;;;1.14;68.84;101391.41;1747539;80;21652;-57
2021/10/25 06:12:50;;;;;;;10.40;5.80;;;;;;;1.25;68.70;101396.89;1747200;80;21497;-58
2021/10/25 06:15:23;;;;;;;10.43;6.83;;;;;;;1.34;68.62;101397.03;1755164;80;22649;-58
2021/10/25 06:17:58;;;;;;;11.30;6.93;;;;;;;1.43;68.50;101403.80;1751335;80;21088;-58
2021/10/25 06:20:21;;;;;;;12.67;6.53;;;;;;;1.51;68.31;101407.03;1748105;80;21507;-57
2021/10/25 06:22:47;;;;;;;10.77;6.67;;;;;;;1.57;68.26;101408.88;1752298;80;21109;-58
2021/10/25 06:25:14;;;;;;;11.10;6.43;;;;;;;1.66;68.16;101409.00;1744032;80;21120;-57
2021/10/25 06:27:43;;;;;;;9.03;4.57;;;;;;;1.76;67.90;101411.35;1755611;80;21499;-58
2021/10/25 06:30:10;;;;;;;10.37;5.37;;;;;;;1.85;67.76;101419.02;1749993;80;22295;-58
2021/10/25 06:32:37;;;;;;;11.87;5.07;;;;;;;1.93;67.50;101417.78;1750179;80;21100;-58
2021/10/25 06:35:08;;;;;;;9.20;5.90;;;;;;;2.02;67.29;101417.91;1748145;80;21522;-58
2021/10/25 06:38:01;;;;;;;12.43;5.50;;;;;;;2.10;67.03;101418.00;1694861;80;21009;-58
2021/10/25 06:40:26;;;;;;;11.30;5.80;;;;;;;2.20;66.86;101417.24;1753422;80;21361;-58
2021/10/25 06:42:53;;;;;;;12.47;6.63;;;;;;;2.30;66.76;101415.59;1751878;80;21077;-58
2021/10/25 06:45:22;;;;;;;12.97;6.70;;;;;;;2.41;66.59;101410.83;1746918;80;21077;-58
2021/10/25 06:47:49;;;;;;;14.27;7.23;;;;;;;2.51;66.32;101408.73;1754399;80;20937;-58
2021/10/25 06:50:19;;;;;;;13.73;7.30;;;;;;;2.60;66.14;101413.26;1722962;80;21562;-58
2021/10/25 06:52:48;;;;;;;16.33;6.87;;;;;;;2.68;66.03;101412.90;1755078;80;21218;-58
2021/10/25 06:55:15;;;;;;;18.13;8.40;;;;;;;2.78;65.81;101418.77;1750854;80;21048;-57
2021/10/25 06:57:43;;;;;;;13.77;7.97;;;;;;;2.85;65.58;101417.94;1746984;80;21104;-58
2021/10/25 07:00:13;;;;;;;20.90;8.63;;;;;;;2.94;65.40;101414.04;1745178;80;21119;-57
2021/10/25 07:02:39;;;;;;;17.17;8.50;;;;;;;3.01;65.05;101419.86;1750439;80;21119;-59
2021/10/25 07:05:09;;;;;;;16.23;9.37;;;;;;;3.09;64.90;101409.72;1754136;80;21096;-58
2021/10/25 07:07:37;;;;;;;18.63;9.63;;;;;;;3.17;64.61;101414.22;1750316;80;21070;-58
2021/10/25 07:10:08;;;;;;;11.90;6.13;;;;;;;3.26;64.43;101416.07;1749999;80;21080;-57
2021/10/25 07:12:37;;;;;;;16.43;6.80;;;;;;;3.36;63.98;101421.48;1751688;80;21066;-58
2021/10/25 07:15:04;;;;;;;17.87;7.53;;;;;;;3.41;63.55;101418.84;1717068;80;21096;-57
2021/10/25 07:20:33;;;;;;;9.77;5.10;;;;;;;3.47;63.16;101406.92;1699215;80;21022;-61
2021/10/25 07:59:31;;;;;;;11.47;4.20;;;;;;;3.57;62.43;101413.20;1757488;80;21398;-59
2021/10/25 08:10:57;;;;;;;2.23;0.73;;;;;;;5.05;56.97;101406.59;1864576;75;26460;-59
2021/10/25 08:13:19;;;;;;;2.57;0.67;;;;;;;5.08;56.67;101411.51;1836459;77;20910;-59
2021/10/25 08:15:47;;;;;;;1.37;0.60;;;;;;;5.15;56.72;101407.05;1834050;77;22117;-58
2021/10/25 08:20:55;;;;;;;0.73;0.60;;;;;;;5.35;56.08;101408.39;1832199;77;21649;-59
2021/10/25 08:23:21;;;;;;;1.23;0.50;;;;;;;5.44;55.54;101405.27;1834127;77;21060;-59
2021/10/25 08:25:48;;;;;;;1.20;0.60;;;;;;;5.53;55.25;101404.38;1838552;77;20915;-58
2021/10/25 08:28:17;;;;;;;1.47;0.60;;;;;;;5.59;54.82;101407.91;1834444;77;22332;-59
2021/10/25 08:30:45;;;;;;;3.30;0.70;;;;;;;5.65;54.52;101400.32;1808687;77;21411;-59
2021/10/25 08:35:57;;;;;;;2.97;0.80;;;;;;;5.77;54.06;101385.61;1810981;77;21444;-58
2021/10/25 08:41:29;;;;;;;0.95;0.60;;;;;;;5.90;52.98;101392.72;1814143;77;21210;-59
2021/10/25 08:43:58;;;;;;;2.23;0.90;;;;;;;5.94;52.63;101390.49;1821727;77;20951;-59
2021/10/25 08:46:27;;;;;;;1.50;0.73;;;;;;;5.97;52.23;101379.77;1818882;77;20922;-59
2021/10/25 08:48:54;;;;;;;4.93;1.13;;;;;;;6.00;52.19;101386.45;1816822;77;21511;-59
2021/10/25 08:51:23;;;;;;;2.17;1.13;;;;;;;6.05;51.76;101383.74;1736340;80;20925;-59
2021/10/25 08:53:49;;;;;;;2.23;1.00;;;;;;;6.07;52.12;101384.19;1770786;80;21891;-58
2021/10/25 08:56:18;;;;;;;1.30;0.83;;;;;;;6.13;51.90;101391.73;1769653;80;21116;-59
2021/10/25 08:58:52;;;;;;;3.30;0.70;;;;;;;6.16;51.71;101388.61;1776275;78;20948;-58
2021/10/25 09:01:26;;;;;;;0.97;0.67;;;;;;;6.18;51.45;101377.47;1776935;78;20922;-58
2021/10/25 09:04:07;;;;;;;1.00;0.60;;;;;;;6.26;51.09;101370.73;1766967;78;20976;-58
2021/10/25 09:06:51;;;;;;;3.07;0.70;;;;;;;6.33;50.81;101370.70;1779478;78;21153;-60
2021/10/25 09:12:05;;;;;;;1.20;0.60;;;;;;;6.40;49.97;101371.55;1846937;75;22627;-58
2021/10/25 09:14:33;;;;;;;0.67;0.47;;;;;;;6.37;49.60;101367.57;1810681;77;20898;-59
2021/10/25 09:17:05;;;;;;;0.90;0.50;;;;;;;6.35;49.48;101368.91;1809789;77;21124;-59
2021/10/25 09:19:42;;;;;;;8.90;1.97;;;;;;;6.36;49.25;101364.45;1804162;77;21498;-59
2021/10/25 09:22:15;;;;;;;4.00;0.70;;;;;;;6.34;49.08;101368.47;1806964;77;21080;-58
2021/10/25 09:24:54;;;;;;;1.37;0.60;;;;;;;6.35;49.10;101370.25;1787363;77;20894;-58
2021/10/25 09:27:42;;;;;;;0.90;0.50;;;;;;;6.41;49.21;101369.31;1804148;77;21000;-58
2021/10/25 09:30:14;;;;;;;0.83;0.50;;;;;;;6.48;49.16;101367.48;1744045;78;21184;-58
2021/10/25 09:32:41;;;;;;;0.90;0.50;;;;;;;6.54;49.14;101364.80;1760141;78;21084;-58
2021/10/25 09:35:31;;;;;;;1.27;0.60;;;;;;;6.59;48.64;101373.22;1749759;80;21028;-59
2021/10/25 09:49:33;;;;;;;1.20;0.80;;;;;;;6.78;46.94;101358.83;1703649;81;21107;-58
2021/10/25 09:52:05;;;;;;;0.90;0.60;;;;;;;6.80;46.82;101354.33;1734222;81;21108;-58
2021/10/25 09:54:33;;;;;;;0.90;0.60;;;;;;;6.83;46.78;101352.98;1733049;81;21112;-59
2021/10/25 09:57:12;;;;;;;4.70;0.80;;;;;;;6.87;46.85;101351.18;1734841;81;22074;-59
2021/10/25 09:59:56;;;;;;;3.33;0.80;;;;;;;6.93;46.97;101350.23;1730960;81;21095;-59
2021/10/25 10:02:27;;;;;;;1.13;0.70;;;;;;;7.00;46.73;101349.27;1725579;80;21433;-57
2021/10/25 10:04:58;;;;;;;3.43;0.90;;;;;;;7.05;46.47;101353.71;1736954;81;21100;-57
2021/10/25 10:07:27;;;;;;;1.60;1.30;;;;;;;7.08;46.18;101340.72;1731170;80;21170;-58
2021/10/25 10:09:55;;;;;;;1.30;0.80;;;;;;;7.10;46.26;101334.47;1736078;81;21153;-58
2021/10/25 10:12:24;;;;;;;3.80;1.63;;;;;;;7.15;46.09;101334.41;1737560;81;21368;-58
2021/10/25 10:14:59;;;;;;;1.80;0.80;;;;;;;7.20;45.88;101334.82;1737515;80;20961;-58
2021/10/25 10:17:32;;;;;;;5.30;1.10;;;;;;;7.25;45.24;101333.88;1723033;81;21111;-58
2021/10/25 10:20:12;;;;;;;1.60;1.00;;;;;;;7.27;45.01;101328.95;1738856;81;21076;-58
2021/10/25 10:22:50;;;;;;;12.87;2.13;;;;;;;7.27;44.62;101326.27;1733880;80;21810;-58
2021/10/25 10:25:39;;;;;;;1.98;1.12;;;;;;;7.27;44.62;101326.27;1741034;81;20925;-58
2021/10/25 10:28:12;;;;;;;6.60;1.33;;;;;;;7.30;44.93;101333.39;1714551;81;20921;-59
2021/10/25 10:30:55;;;;;;;3.20;1.40;;;;;;;7.35;44.47;101332.88;1732767;81;21482;-58
2021/10/25 10:33:36;;;;;;;2.97;1.57;;;;;;;7.35;44.06;101325.73;1733909;80;21052;-58
2021/10/25 10:36:21;;;;;;;6.57;1.80;;;;;;;7.36;44.21;101319.93;1736516;81;21163;-58
2021/10/25 10:39:12;;;;;;;4.53;1.53;;;;;;;7.38;44.45;101319.47;1733447;81;21088;-60
2021/10/25 10:42:01;;;;;;;3.27;1.87;;;;;;;7.43;44.30;101318.51;1736318;81;21580;-59
2021/10/25 10:44:52;;;;;;;2.50;1.93;;;;;;;7.49;44.07;101318.43;1733093;81;21756;-59
2021/10/25 10:47:19;;;;;;;3.00;1.50;;;;;;;7.57;43.66;101325.08;1731374;81;21069;-59
2021/10/25 10:49:51;;;;;;;3.30;1.30;;;;;;;7.64;43.51;101313.83;1734195;81;21517;-60
2021/10/25 10:55:20;;;;;;;4.10;1.57;;;;;;;7.75;43.09;101314.57;1735544;81;20988;-59
2021/10/25 11:00:36;;;;;;;3.15;1.72;;;;;;;7.83;42.62;101316.25;1734543;81;20914;-59
2021/10/25 11:03:17;;;;;;;3.93;1.90;;;;;;;7.87;42.39;101314.44;1735345;81;21099;-59
2021/10/25 11:05:48;;;;;;;5.63;1.77;;;;;;;7.91;42.29;101309.00;1736166;81;21644;-60
2021/10/25 11:08:18;;;;;;;2.87;1.60;;;;;;;7.94;42.43;101311.65;1731998;80;21475;-61
2021/10/25 11:10:46;;;;;;;2.60;1.33;;;;;;;7.96;42.47;101304.48;1737570;81;21064;-60
2021/10/25 11:13:18;;;;;;;4.40;1.67;;;;;;;8.02;42.53;101307.53;1739311;81;21456;-59
2021/10/25 11:16:07;;;;;;;5.67;1.37;;;;;;;8.08;42.36;101303.90;1739517;81;21742;-59
2021/10/25 11:18:32;;;;;;;3.73;1.50;;;;;;;8.11;42.35;101300.70;1736962;81;20989;-59
2021/10/25 11:21:27;;;;;;;3.00;1.73;;;;;;;8.16;41.88;101301.55;1738741;81;20934;-59
2021/10/25 11:24:03;;;;;;;3.60;1.75;;;;;;;8.19;41.78;101296.56;1741167;81;21069;-59
2021/10/25 11:26:44;;;;;;;2.03;1.30;;;;;;;8.23;41.64;101295.18;1738804;81;21023;-60
2021/10/25 11:29:14;;;;;;;6.10;2.53;;;;;;;8.27;41.08;101289.30;1734867;81;21267;-58
2021/10/25 11:31:56;;;;;;;4.80;2.30;;;;;;;8.29;40.58;101289.72;1733184;81;21124;-60
2021/10/25 11:34:29;;;;;;;4.40;2.23;;;;;;;8.25;40.65;101289.31;1735460;81;21047;-59
2021/10/25 11:37:08;;;;;;;3.60;1.70;;;;;;;8.22;40.67;101286.70;1738954;81;21452;-59
2021/10/25 11:40:04;;;;;;;4.33;1.93;;;;;;;8.20;40.66;101285.83;1736309;81;20952;-59
2021/10/25 11:42:43;;;;;;;5.92;1.70;;;;;;;8.18;40.68;101282.27;1742590;81;22173;-60
2021/10/25 11:45:17;;;;;;;3.37;1.50;;;;;;;8.18;40.58;101276.91;1741656;81;20930;-59
2021/10/25 11:47:49;;;;;;;4.70;1.90;;;;;;;8.20;40.61;101272.86;1739608;81;20925;-59
2021/10/25 11:50:21;;;;;;;8.97;2.03;;;;;;;8.24;40.88;101271.92;1740918;81;20949;-59
2021/10/25 11:53:06;;;;;;;4.53;1.80;;;;;;;8.28;41.52;101276.31;1743743;81;20910;-58
2021/10/25 11:55:36;;;;;;;5.83;1.77;;;;;;;8.32;41.53;101273.63;1744415;81;21119;-59
2021/10/25 11:58:13;;;;;;;2.47;1.50;;;;;;;8.38;41.49;101269.95;1741891;81;21024;-59
2021/10/25 12:00:44;;;;;;;3.60;1.80;;;;;;;8.41;41.24;101262.31;1734954;81;20930;-59
2021/10/25 12:03:26;;;;;;;2.60;1.40;;;;;;;8.43;41.31;101259.12;1737243;81;20934;-59
2021/10/25 12:05:53;;;;;;;4.20;1.77;;;;;;;8.43;40.97;101255.99;1742334;81;21056;-59
2021/10/25 12:08:19;;;;;;;3.57;2.53;;;;;;;8.42;40.53;101256.05;1741348;81;21094;-60
2021/10/25 12:10:48;;;;;;;3.33;1.93;;;;;;;8.39;40.49;101252.94;1740490;80;20929;-60
2021/10/25 12:13:15;;;;;;;15.23;2.27;;;;;;;8.37;40.52;101248.05;1767654;80;21447;-58
2021/10/25 12:15:53;;;;;;;3.07;2.10;;;;;;;8.37;40.87;101244.02;1737932;81;20957;-60
2021/10/25 12:18:19;;;;;;;5.57;2.03;;;;;;;8.39;40.79;101249.38;1761640;80;21365;-59
2021/10/25 12:20:46;;;;;;;6.67;1.60;;;;;;;8.40;40.74;101253.38;1734647;81;23296;-59
2021/10/25 12:23:19;;;;;;;3.10;1.70;;;;;;;8.41;40.48;101248.90;1739239;80;21364;-59
2021/10/25 12:26:01;;;;;;;4.35;1.60;;;;;;;8.39;40.57;101246.69;1738094;81;21358;-59
2021/10/25 12:28:27;;;;;;;5.27;1.70;;;;;;;8.38;40.75;101241.77;1759258;80;21127;-59
2021/10/25 12:31:12;;;;;;;5.20;1.90;;;;;;;8.39;40.67;101235.95;1735808;81;21072;-60
2021/10/25 12:33:39;;;;;;;6.25;1.67;;;;;;;8.38;40.81;101235.06;1728145;81;21684;-59
2021/10/25 12:36:21;;;;;;;4.30;1.47;;;;;;;8.39;40.96;101227.91;1731921;81;21551;-59
2021/10/25 12:38:51;;;;;;;6.37;1.83;;;;;;;8.39;40.95;101229.25;1736071;81;21075;-58
2021/10/25 12:41:17;;;;;;;2.40;1.70;;;;;;;8.42;41.36;101221.16;1744896;80;22337;-59
2021/10/25 12:43:46;;;;;;;7.63;2.17;;;;;;;8.45;40.93;101216.61;1746903;80;21736;-59
2021/10/25 12:46:21;;;;;;;5.30;2.43;;;;;;;8.48;40.79;101225.08;1750407;79;21794;-59
2021/10/25 12:48:56;;;;;;;4.65;1.98;;;;;;;8.51;40.78;101223.66;1758601;80;26625;-59
2021/10/25 12:51:35;;;;;;;17.17;2.43;;;;;;;8.51;40.58;101222.32;1736036;81;21377;-59
2021/10/25 12:54:07;;;;;;;3.17;1.70;;;;;;;8.52;40.47;101216.05;1743697;80;21172;-58
2021/10/25 12:56:34;;;;;;;14.30;2.87;;;;;;;8.53;40.54;101222.73;1748902;80;20937;-59
2021/10/25 12:59:03;;;;;;;9.73;2.50;;;;;;;8.53;40.55;101216.03;1748092;80;22490;-58
2021/10/25 13:01:31;;;;;;;5.17;1.70;;;;;;;8.55;40.62;101219.58;1747961;80;21453;-59
2021/10/25 13:03:58;;;;;;;6.23;1.93;;;;;;;8.56;40.46;101222.70;1743082;81;21031;-59
2021/10/25 13:06:30;;;;;;;5.13;2.70;;;;;;;8.56;40.63;101220.02;1742335;81;21068;-59
2021/10/25 13:09:00;;;;;;;5.17;1.83;;;;;;;8.57;40.91;101214.19;1741996;81;21064;-60
2021/10/25 13:11:27;;;;;;;8.80;2.10;;;;;;;8.58;41.08;101220.88;1743400;81;22153;-59
2021/10/25 13:14:00;;;;;;;4.20;1.80;;;;;;;8.59;41.42;101218.59;1746460;79;21063;-59
2021/10/25 13:16:32;;;;;;;6.90;2.43;;;;;;;8.59;41.06;101213.72;1746772;79;21139;-59
2021/10/25 13:18:59;;;;;;;6.23;1.70;;;;;;;8.59;41.16;101216.41;1751593;81;21091;-58
2021/10/25 13:21:25;;;;;;;2.90;1.53;;;;;;;8.57;41.11;101209.71;1743976;81;21083;-60
2021/10/25 13:23:51;;;;;;;5.87;1.87;;;;;;;8.58;41.04;101214.62;1714012;82;21058;-59
2021/10/25 13:26:18;;;;;;;2.27;1.13;;;;;;;8.58;41.12;101204.78;1710903;82;21641;-60
2021/10/25 13:28:45;;;;;;;2.53;1.50;;;;;;;8.58;41.36;101204.78;1695022;83;21128;-59
2021/10/25 13:31:11;;;;;;;3.60;1.73;;;;;;;8.56;41.47;101202.56;1713750;81;21091;-60
2021/10/25 13:33:40;;;;;;;3.40;1.20;;;;;;;8.55;41.53;101203.93;1707887;81;21080;-59
2021/10/25 13:36:05;;;;;;;2.40;1.70;;;;;;;8.54;41.82;101203.05;1709268;81;21096;-59